Time;durP1;ratioP1;P1;durP2;ratioP2;P2;SDS_P1;SDS_P2;PMS_P1;PMS_P2;Temp;Humidity;BMP_temperature;BMP_pressure;BME280_temperature;BME280_humidity;BME280_pressure;Samples;Min_cycle;Max_cycle;Signal;HPM_P1;HPM_P2
2021/08/19 00:01:06;;;;;;;1.33;1.21;;;;;;;21.65;70.46;100455.30;;;;-52
2021/08/19 00:04:06;;;;;;;1.41;1.31;;;;;;;21.65;70.45;100456.36;;;;-51
2021/08/19 00:07:06;;;;;;;1.42;1.30;;;;;;;21.64;70.48;100458.58;;;;-52
2021/08/19 00:10:06;;;;;;;1.30;1.20;;;;;;;21.63;70.50;100450.89;;;;-52
2021/08/19 00:13:06;;;;;;;1.29;1.19;;;;;;;21.64;70.49;100448.60;;;;-52
2021/08/19 00:16:06;;;;;;;1.39;1.29;;;;;;;21.63;70.51;100447.31;;;;-52
2021/08/19 00:19:06;;;;;;;1.30;1.20;;;;;;;21.63;70.52;100445.36;;;;-51
2021/08/19 00:22:06;;;;;;;1.31;1.21;;;;;;;21.62;70.52;100441.19;;;;-52
2021/08/19 00:25:06;;;;;;;1.32;1.20;;;;;;;21.63;70.53;100444.95;;;;-52
2021/08/19 00:28:06;;;;;;;1.72;1.37;;;;;;;21.62;70.51;100444.20;;;;-51
2021/08/19 00:31:06;;;;;;;1.39;1.29;;;;;;;21.60;70.48;100436.13;;;;-52
2021/08/19 00:34:06;;;;;;;1.10;1.10;;;;;;;21.61;70.51;100439.91;;;;-51
2021/08/19 00:37:06;;;;;;;1.45;1.20;;;;;;;21.61;70.52;100444.38;;;;-52
2021/08/19 00:40:06;;;;;;;1.43;1.32;;;;;;;21.60;70.54;100443.39;;;;-52
2021/08/19 00:43:06;;;;;;;1.27;1.19;;;;;;;21.60;70.53;100442.58;;;;-52
2021/08/19 00:46:06;;;;;;;1.47;1.30;;;;;;;21.60;70.53;100436.55;;;;-51
2021/08/19 00:49:06;;;;;;;1.77;1.20;;;;;;;21.59;70.52;100431.41;;;;-51
2021/08/19 00:52:06;;;;;;;1.35;1.25;;;;;;;21.59;70.53;100431.83;;;;-52
2021/08/19 00:55:06;;;;;;;1.30;1.20;;;;;;;21.59;70.51;100426.03;;;;-63
2021/08/19 00:58:06;;;;;;;1.28;1.19;;;;;;;21.58;70.55;100424.09;;;;-62
2021/08/19 01:01:06;;;;;;;1.38;1.28;;;;;;;21.58;70.53;100422.44;;;;-62
2021/08/19 01:04:06;;;;;;;1.38;1.27;;;;;;;21.58;70.55;100426.67;;;;-63
2021/08/19 01:07:06;;;;;;;1.47;1.37;;;;;;;21.57;70.60;100425.22;;;;-62
2021/08/19 01:10:06;;;;;;;1.39;1.24;;;;;;;21.57;70.57;100421.31;;;;-62
2021/08/19 01:13:06;;;;;;;1.31;1.21;;;;;;;21.56;70.57;100415.61;;;;-62
2021/08/19 01:16:06;;;;;;;1.42;1.19;;;;;;;21.56;70.57;100417.82;;;;-62
2021/08/19 01:19:06;;;;;;;1.69;1.20;;;;;;;21.56;70.58;100412.02;;;;-62
2021/08/19 01:22:06;;;;;;;1.26;1.19;;;;;;;21.56;70.57;100414.20;;;;-62
2021/08/19 01:25:06;;;;;;;2.05;1.26;;;;;;;21.56;70.57;100411.44;;;;-62
2021/08/19 01:28:06;;;;;;;1.30;1.20;;;;;;;21.55;70.58;100409.73;;;;-62
2021/08/19 01:31:06;;;;;;;1.27;1.19;;;;;;;21.55;70.57;100409.33;;;;-62
2021/08/19 01:34:06;;;;;;;1.40;1.30;;;;;;;21.54;70.53;100408.20;;;;-62
2021/08/19 01:37:06;;;;;;;2.01;1.21;;;;;;;21.54;70.58;100411.87;;;;-63
2021/08/19 01:40:06;;;;;;;1.27;1.17;;;;;;;21.54;70.59;100410.40;;;;-61
2021/08/19 01:43:06;;;;;;;1.34;1.24;;;;;;;21.54;70.59;100410.87;;;;-62
2021/08/19 01:46:06;;;;;;;1.31;1.21;;;;;;;21.54;70.61;100409.32;;;;-53
2021/08/19 01:49:06;;;;;;;1.34;1.23;;;;;;;21.53;70.60;100409.25;;;;-54
2021/08/19 01:52:06;;;;;;;1.35;1.24;;;;;;;21.52;70.59;100406.49;;;;-53
2021/08/19 01:55:06;;;;;;;1.41;1.31;;;;;;;21.53;70.62;100400.77;;;;-53
2021/08/19 01:58:06;;;;;;;1.23;1.17;;;;;;;21.52;70.63;100398.66;;;;-55
2021/08/19 02:01:06;;;;;;;1.37;1.27;;;;;;;21.52;70.62;100395.56;;;;-51
2021/08/19 02:04:06;;;;;;;1.31;1.21;;;;;;;21.52;70.59;100394.48;;;;-52
2021/08/19 02:07:06;;;;;;;1.26;1.19;;;;;;;21.52;70.64;100398.08;;;;-52
2021/08/19 02:10:07;;;;;;;1.09;1.09;;;;;;;21.52;70.61;100388.64;;;;-51
2021/08/19 02:13:06;;;;;;;1.33;1.23;;;;;;;21.51;70.61;100388.22;;;;-52
2021/08/19 02:16:06;;;;;;;1.51;1.25;;;;;;;21.52;70.61;100383.89;;;;-51
2021/08/19 02:19:06;;;;;;;1.29;1.20;;;;;;;21.51;70.66;100398.00;;;;-52
2021/08/19 02:22:06;;;;;;;1.28;1.18;;;;;;;21.52;70.63;100401.02;;;;-51
2021/08/19 02:25:06;;;;;;;1.41;1.30;;;;;;;21.51;70.62;100393.53;;;;-52
2021/08/19 02:28:06;;;;;;;1.19;1.17;;;;;;;21.49;70.62;100390.50;;;;-52
2021/08/19 02:31:06;;;;;;;1.62;1.20;;;;;;;21.50;70.63;100391.33;;;;-52
2021/08/19 02:34:06;;;;;;;1.00;1.00;;;;;;;21.50;70.64;100394.08;;;;-52
2021/08/19 02:37:06;;;;;;;1.19;1.19;;;;;;;21.49;70.63;100390.58;;;;-53
2021/08/19 02:40:06;;;;;;;1.31;1.22;;;;;;;21.49;70.59;100391.16;;;;-51
2021/08/19 02:43:06;;;;;;;1.47;1.20;;;;;;;21.49;70.67;100389.86;;;;-52
2021/08/19 02:46:06;;;;;;;1.30;1.20;;;;;;;21.49;70.65;100393.77;;;;-52
2021/08/19 02:49:06;;;;;;;1.29;1.19;;;;;;;21.49;70.64;100392.47;;;;-51
2021/08/19 02:52:06;;;;;;;1.32;1.22;;;;;;;21.48;70.64;100389.13;;;;-52
2021/08/19 02:55:06;;;;;;;1.27;1.20;;;;;;;21.48;70.65;100391.42;;;;-51
2021/08/19 02:58:06;;;;;;;1.39;1.29;;;;;;;21.47;70.63;100392.55;;;;-57
2021/08/19 03:01:06;;;;;;;1.20;1.10;;;;;;;21.47;70.65;100385.38;;;;-57
2021/08/19 03:04:06;;;;;;;1.28;1.22;;;;;;;21.47;70.64;100387.17;;;;-62
2021/08/19 03:07:07;;;;;;;1.11;1.11;;;;;;;21.47;70.64;100386.68;;;;-61
2021/08/19 03:10:06;;;;;;;1.35;1.25;;;;;;;21.46;70.66;100382.94;;;;-62
2021/08/19 03:13:06;;;;;;;1.31;1.21;;;;;;;21.46;70.66;100383.43;;;;-62
2021/08/19 03:16:06;;;;;;;1.29;1.19;;;;;;;21.46;70.69;100382.63;;;;-62
2021/08/19 03:19:06;;;;;;;1.39;1.29;;;;;;;21.46;70.66;100386.13;;;;-61
2021/08/19 03:22:07;;;;;;;1.17;1.12;;;;;;;21.46;70.72;100387.84;;;;-54
2021/08/19 03:25:07;;;;;;;1.30;1.20;;;;;;;21.46;70.68;100390.29;;;;-54
2021/08/19 03:28:08;;;;;;;1.30;1.20;;;;;;;21.45;70.68;100389.78;;;;-62
2021/08/19 03:31:06;;;;;;;1.34;1.24;;;;;;;21.45;70.69;100385.21;;;;-62
2021/08/19 03:34:06;;;;;;;1.20;1.10;;;;;;;21.45;70.74;100385.95;;;;-62
2021/08/19 03:37:07;;;;;;;1.11;1.10;;;;;;;21.45;70.67;100393.37;;;;-62
2021/08/19 03:40:06;;;;;;;1.10;1.10;;;;;;;21.45;70.68;100392.72;;;;-61
2021/08/19 03:43:06;;;;;;;1.27;1.17;;;;;;;21.44;70.66;100392.00;;;;-62
2021/08/19 03:46:06;;;;;;;1.15;1.10;;;;;;;21.44;70.69;100393.55;;;;-62
2021/08/19 03:49:06;;;;;;;1.30;1.20;;;;;;;21.44;70.71;100399.27;;;;-62
2021/08/19 03:52:06;;;;;;;1.26;1.21;;;;;;;21.45;70.71;100401.94;;;;-51
2021/08/19 03:55:06;;;;;;;1.10;1.10;;;;;;;21.44;70.70;100395.34;;;;-52
2021/08/19 03:58:06;;;;;;;1.24;1.14;;;;;;;21.44;70.70;100394.70;;;;-52
2021/08/19 04:01:06;;;;;;;1.24;1.15;;;;;;;21.44;70.71;100398.28;;;;-51
2021/08/19 04:04:06;;;;;;;1.23;1.10;;;;;;;21.43;70.73;100398.19;;;;-53
2021/08/19 04:07:06;;;;;;;1.30;1.20;;;;;;;21.43;70.71;100401.20;;;;-51
2021/08/19 04:10:06;;;;;;;1.23;1.20;;;;;;;21.43;70.70;100401.84;;;;-51
2021/08/19 04:13:06;;;;;;;1.29;1.19;;;;;;;21.44;70.74;100404.41;;;;-52
2021/08/19 04:16:06;;;;;;;1.11;1.10;;;;;;;21.42;70.71;100401.14;;;;-52
2021/08/19 04:19:06;;;;;;;1.10;1.10;;;;;;;21.42;70.69;100406.43;;;;-52
2021/08/19 04:22:06;;;;;;;1.53;1.19;;;;;;;21.42;70.69;100407.98;;;;-57
2021/08/19 04:25:06;;;;;;;1.30;1.20;;;;;;;21.43;70.69;100404.55;;;;-57
2021/08/19 04:28:06;;;;;;;1.27;1.27;;;;;;;21.42;70.69;100401.38;;;;-57
2021/08/19 04:31:06;;;;;;;1.69;1.20;;;;;;;21.41;70.70;100399.55;;;;-57
2021/08/19 04:34:06;;;;;;;1.25;1.15;;;;;;;21.41;70.72;100396.77;;;;-57
2021/08/19 04:37:06;;;;;;;1.36;1.26;;;;;;;21.41;70.72;100398.23;;;;-57
2021/08/19 04:40:06;;;;;;;1.20;1.20;;;;;;;21.40;70.75;100396.37;;;;-57
2021/08/19 04:43:06;;;;;;;1.41;1.31;;;;;;;21.41;70.71;100394.73;;;;-62
2021/08/19 04:46:06;;;;;;;9.17;2.27;;;;;;;21.36;71.24;100404.70;;;;-62
2021/08/19 04:49:07;;;;;;;3.37;2.31;;;;;;;21.29;71.49;100403.02;;;;-61
2021/08/19 04:52:07;;;;;;;2.69;2.31;;;;;;;21.27;71.52;100396.75;;;;-62
2021/08/19 04:55:06;;;;;;;2.71;2.41;;;;;;;21.26;71.65;100405.38;;;;-62
2021/08/19 04:58:06;;;;;;;3.68;2.17;;;;;;;21.23;71.83;100406.21;;;;-63
2021/08/19 05:01:06;;;;;;;3.52;2.46;;;;;;;21.23;71.78;100409.22;;;;-54
2021/08/19 05:04:06;;;;;;;3.59;2.34;;;;;;;21.22;71.87;100409.38;;;;-55
2021/08/19 05:07:06;;;;;;;3.78;2.41;;;;;;;21.22;71.97;100411.01;;;;-54
2021/08/19 05:10:06;;;;;;;2.51;2.31;;;;;;;21.20;72.11;100414.98;;;;-62
2021/08/19 05:13:06;;;;;;;2.79;2.33;;;;;;;21.20;72.22;100413.95;;;;-63
2021/08/19 05:16:06;;;;;;;4.51;2.43;;;;;;;21.19;72.38;100414.61;;;;-63
2021/08/19 05:19:06;;;;;;;2.91;2.57;;;;;;;21.19;72.31;100411.02;;;;-62
2021/08/19 05:22:06;;;;;;;3.31;2.50;;;;;;;21.18;72.31;100411.25;;;;-62
2021/08/19 05:25:06;;;;;;;3.05;2.57;;;;;;;21.18;72.40;100416.22;;;;-63
2021/08/19 05:28:06;;;;;;;3.32;2.41;;;;;;;21.17;72.45;100416.23;;;;-63
2021/08/19 05:31:08;;;;;;;3.41;2.35;;;;;;;21.17;72.48;100414.20;;;;-63
2021/08/19 05:34:08;;;;;;;2.83;2.63;;;;;;;21.16;72.50;100413.69;;;;-52
2021/08/19 05:37:06;;;;;;;2.76;2.49;;;;;;;21.17;72.55;100416.08;;;;-51
2021/08/19 05:40:06;;;;;;;2.93;2.61;;;;;;;21.15;72.51;100419.09;;;;-52
2021/08/19 05:43:06;;;;;;;4.26;2.49;;;;;;;21.15;72.54;100418.20;;;;-52
2021/08/19 05:46:06;;;;;;;3.23;2.68;;;;;;;21.14;72.54;100424.05;;;;-52
2021/08/19 05:49:06;;;;;;;2.71;2.49;;;;;;;21.14;72.62;100425.03;;;;-52
2021/08/19 05:52:06;;;;;;;3.17;2.60;;;;;;;21.13;72.64;100423.66;;;;-62
2021/08/19 05:55:06;;;;;;;3.39;2.65;;;;;;;21.13;72.61;100428.31;;;;-52
2021/08/19 05:58:06;;;;;;;2.87;2.56;;;;;;;21.12;72.66;100428.70;;;;-52
2021/08/19 06:01:06;;;;;;;4.21;2.53;;;;;;;21.12;72.57;100431.55;;;;-52
2021/08/19 06:04:06;;;;;;;2.87;2.67;;;;;;;21.12;72.57;100438.08;;;;-52
2021/08/19 06:07:06;;;;;;;3.09;2.71;;;;;;;21.11;72.62;100438.90;;;;-52
2021/08/19 06:10:06;;;;;;;3.91;2.81;;;;;;;21.11;72.66;100439.07;;;;-52
2021/08/19 06:13:06;;;;;;;2.92;2.53;;;;;;;21.11;72.55;100442.82;;;;-52
2021/08/19 06:16:06;;;;;;;2.89;2.60;;;;;;;21.10;72.67;100443.94;;;;-52
2021/08/19 06:19:06;;;;;;;3.04;2.75;;;;;;;21.09;72.74;100447.86;;;;-57
2021/08/19 06:22:07;;;;;;;3.83;2.95;;;;;;;21.09;72.70;100447.45;;;;-54
2021/08/19 06:25:06;;;;;;;3.45;2.55;;;;;;;21.08;72.75;100447.92;;;;-52
2021/08/19 06:28:06;;;;;;;2.87;2.59;;;;;;;21.07;72.79;100444.44;;;;-57
2021/08/19 06:31:06;;;;;;;3.36;2.81;;;;;;;21.10;72.66;100446.95;;;;-59
2021/08/19 06:34:06;;;;;;;3.89;2.68;;;;;;;21.12;72.45;100444.98;;;;-53
2021/08/19 06:37:06;;;;;;;3.09;2.52;;;;;;;21.14;72.34;100444.17;;;;-53
2021/08/19 06:40:06;;;;;;;2.91;2.47;;;;;;;21.16;72.19;100442.22;;;;-62
2021/08/19 06:43:06;;;;;;;2.82;2.32;;;;;;;21.16;72.18;100441.56;;;;-51
2021/08/19 06:46:06;;;;;;;3.34;2.35;;;;;;;21.18;72.08;100439.05;;;;-51
2021/08/19 06:49:06;;;;;;;3.01;2.47;;;;;;;21.18;72.00;100439.37;;;;-52
2021/08/19 06:52:06;;;;;;;3.63;2.48;;;;;;;21.18;72.00;100438.95;;;;-51
2021/08/19 06:55:06;;;;;;;2.77;2.49;;;;;;;21.19;71.96;100441.51;;;;-53
2021/08/19 06:58:07;;;;;;;2.59;2.39;;;;;;;21.19;71.91;100442.06;;;;-53
2021/08/19 07:01:06;;;;;;;4.59;2.47;;;;;;;21.19;71.90;100436.20;;;;-63
2021/08/19 07:04:06;;;;;;;2.95;2.21;;;;;;;21.20;71.87;100434.80;;;;-52
2021/08/19 07:07:06;;;;;;;2.36;2.16;;;;;;;21.19;71.83;100425.44;;;;-51
2021/08/19 07:10:06;;;;;;;2.42;2.22;;;;;;;21.21;71.80;100425.86;;;;-52
2021/08/19 07:13:06;;;;;;;2.45;2.25;;;;;;;21.20;71.78;100432.44;;;;-52
2021/08/19 07:16:06;;;;;;;2.72;2.33;;;;;;;21.20;71.78;100418.83;;;;-51
2021/08/19 07:19:06;;;;;;;2.38;2.18;;;;;;;21.21;71.70;100417.30;;;;-52
2021/08/19 07:22:06;;;;;;;2.43;2.22;;;;;;;21.21;71.70;100412.49;;;;-53
2021/08/19 07:25:06;;;;;;;2.45;2.16;;;;;;;21.20;71.69;100410.52;;;;-57
2021/08/19 07:28:06;;;;;;;2.74;2.19;;;;;;;21.21;71.71;100416.31;;;;-59
2021/08/19 07:31:06;;;;;;;2.42;2.13;;;;;;;21.20;71.68;100421.52;;;;-58
2021/08/19 07:34:06;;;;;;;2.51;2.22;;;;;;;21.21;71.70;100421.62;;;;-58
2021/08/19 07:37:06;;;;;;;2.70;2.30;;;;;;;21.22;71.66;100423.81;;;;-59
2021/08/19 07:40:06;;;;;;;3.51;2.27;;;;;;;21.22;71.74;100424.13;;;;-59
2021/08/19 07:43:06;;;;;;;3.02;2.16;;;;;;;21.22;71.65;100429.52;;;;-58
2021/08/19 07:46:06;;;;;;;2.61;2.16;;;;;;;21.23;71.66;100429.98;;;;-53
2021/08/19 07:49:06;;;;;;;3.89;2.30;;;;;;;21.23;71.64;100439.46;;;;-53
2021/08/19 07:52:06;;;;;;;2.42;1.99;;;;;;;21.23;71.57;100438.65;;;;-54
2021/08/19 07:55:06;;;;;;;3.67;2.29;;;;;;;21.23;71.59;100437.40;;;;-53
2021/08/19 07:58:06;;;;;;;3.17;2.25;;;;;;;21.23;71.57;100437.50;;;;-53
2021/08/19 08:01:06;;;;;;;2.88;2.15;;;;;;;21.23;71.53;100438.16;;;;-53
2021/08/19 08:04:08;;;;;;;2.37;2.15;;;;;;;21.23;71.58;100442.12;;;;-53
2021/08/19 08:07:06;;;;;;;2.51;2.07;;;;;;;21.23;71.50;100439.84;;;;-53
2021/08/19 08:10:06;;;;;;;2.97;2.33;;;;;;;21.24;71.62;100442.06;;;;-51
2021/08/19 08:13:06;;;;;;;3.11;2.10;;;;;;;21.25;71.57;100440.35;;;;-53
2021/08/19 08:16:06;;;;;;;3.22;2.05;;;;;;;21.26;71.69;100442.12;;;;-55
2021/08/19 08:19:07;;;;;;;2.33;2.13;;;;;;;21.29;71.75;100442.12;;;;-54
2021/08/19 08:22:06;;;;;;;2.44;2.20;;;;;;;21.30;71.85;100440.66;;;;-53
2021/08/19 08:25:06;;;;;;;2.40;2.20;;;;;;;21.33;71.91;100448.91;;;;-52
2021/08/19 08:28:09;;;;;;;2.43;2.23;;;;;;;21.35;71.90;100447.98;;;;-58
2021/08/19 08:31:07;;;;;;;2.91;2.37;;;;;;;21.36;71.95;100456.23;;;;-53
2021/08/19 08:34:06;;;;;;;7.81;2.41;;;;;;;21.37;71.97;100454.93;;;;-51
2021/08/19 08:37:06;;;;;;;3.41;2.25;;;;;;;21.39;71.93;100459.22;;;;-51
2021/08/19 08:40:06;;;;;;;3.98;2.35;;;;;;;21.39;71.87;100457.10;;;;-51
2021/08/19 08:43:06;;;;;;;3.43;2.29;;;;;;;21.40;71.82;100462.58;;;;-58
2021/08/19 08:46:06;;;;;;;8.83;2.47;;;;;;;21.42;71.65;100463.50;;;;-55
2021/08/19 08:49:06;;;;;;;6.44;2.42;;;;;;;21.42;71.83;100467.72;;;;-55
2021/08/19 08:52:06;;;;;;;4.25;2.21;;;;;;;21.42;71.76;100468.05;;;;-53
2021/08/19 08:55:06;;;;;;;4.65;2.23;;;;;;;21.42;71.67;100465.46;;;;-52
2021/08/19 08:58:06;;;;;;;4.35;2.13;;;;;;;21.43;71.75;100464.88;;;;-54
2021/08/19 09:01:06;;;;;;;3.11;2.21;;;;;;;21.43;71.65;100464.79;;;;-56
2021/08/19 09:04:06;;;;;;;3.27;2.25;;;;;;;21.44;71.69;100469.22;;;;-57
2021/08/19 09:07:06;;;;;;;4.67;2.32;;;;;;;21.46;71.72;100469.76;;;;-64
2021/08/19 09:10:06;;;;;;;5.56;2.33;;;;;;;21.47;71.66;100469.28;;;;-52
2021/08/19 09:13:06;;;;;;;3.03;2.29;;;;;;;21.46;71.69;100473.18;;;;-51
2021/08/19 09:16:06;;;;;;;4.03;2.27;;;;;;;21.46;71.67;100474.32;;;;-53
2021/08/19 09:19:06;;;;;;;5.73;2.48;;;;;;;21.46;71.66;100471.32;;;;-52
2021/08/19 09:22:07;;;;;;;3.62;2.23;;;;;;;21.46;71.62;100470.57;;;;-51
2021/08/19 09:25:06;;;;;;;4.91;2.39;;;;;;;21.45;71.61;100475.06;;;;-62
2021/08/19 09:28:06;;;;;;;3.83;2.29;;;;;;;21.46;71.48;100471.08;;;;-63
2021/08/19 09:31:06;;;;;;;2.67;2.11;;;;;;;21.47;71.49;100470.98;;;;-61
2021/08/19 09:34:06;;;;;;;3.26;2.22;;;;;;;21.49;71.44;100474.58;;;;-55
2021/08/19 09:37:06;;;;;;;4.42;2.27;;;;;;;21.48;71.50;100474.75;;;;-56
2021/08/19 09:40:06;;;;;;;7.48;2.42;;;;;;;21.48;71.60;100469.77;;;;-59
2021/08/19 09:43:06;;;;;;;3.80;2.32;;;;;;;21.49;71.82;100470.25;;;;-54
2021/08/19 09:46:06;;;;;;;4.37;2.31;;;;;;;21.53;71.88;100468.54;;;;-52
2021/08/19 09:49:06;;;;;;;3.89;2.30;;;;;;;21.53;71.97;100465.77;;;;-51
2021/08/19 09:52:06;;;;;;;5.28;2.19;;;;;;;21.54;72.07;100466.27;;;;-54
2021/08/19 09:55:06;;;;;;;4.81;2.39;;;;;;;21.55;72.09;100463.55;;;;-52
2021/08/19 09:58:06;;;;;;;4.29;2.22;;;;;;;21.56;72.22;100460.87;;;;-54
2021/08/19 10:01:06;;;;;;;3.09;2.27;;;;;;;21.57;72.26;100458.41;;;;-61
2021/08/19 10:04:06;;;;;;;3.75;2.40;;;;;;;21.58;72.32;100458.31;;;;-55
2021/08/19 10:07:06;;;;;;;3.80;2.31;;;;;;;21.59;72.30;100457.27;;;;-53
2021/08/19 10:10:06;;;;;;;8.98;2.20;;;;;;;21.59;72.33;100456.53;;;;-55
2021/08/19 10:13:06;;;;;;;4.64;2.15;;;;;;;21.61;72.38;100451.89;;;;-52
2021/08/19 10:16:06;;;;;;;3.55;2.29;;;;;;;21.62;72.29;100449.58;;;;-51
2021/08/19 10:19:06;;;;;;;4.66;2.47;;;;;;;21.63;72.26;100448.38;;;;-62
2021/08/19 10:22:06;;;;;;;7.35;2.50;;;;;;;21.62;72.26;100443.25;;;;-56
2021/08/19 10:25:07;;;;;;;4.89;2.21;;;;;;;21.63;72.27;100448.53;;;;-53
2021/08/19 10:28:06;;;;;;;5.93;2.30;;;;;;;21.63;72.31;100450.66;;;;-52
2021/08/19 10:31:06;;;;;;;5.09;2.45;;;;;;;21.64;72.24;100442.08;;;;-53
2021/08/19 10:34:06;;;;;;;7.83;2.27;;;;;;;21.64;71.94;100444.60;;;;-53
2021/08/19 10:37:06;;;;;;;3.84;2.37;;;;;;;21.64;72.04;100443.08;;;;-54
2021/08/19 10:40:06;;;;;;;4.87;2.30;;;;;;;21.64;71.94;100443.63;;;;-59
2021/08/19 10:43:06;;;;;;;5.78;2.44;;;;;;;21.64;71.91;100434.41;;;;-58
2021/08/19 10:46:06;;;;;;;2.69;2.08;;;;;;;21.64;71.86;100436.61;;;;-53
2021/08/19 10:49:06;;;;;;;3.34;2.17;;;;;;;21.65;71.76;100440.70;;;;-53
2021/08/19 10:52:06;;;;;;;4.07;2.20;;;;;;;21.64;71.74;100431.88;;;;-57
2021/08/19 10:55:06;;;;;;;4.09;2.19;;;;;;;21.64;71.66;100433.10;;;;-56
2021/08/19 10:58:06;;;;;;;3.99;2.08;;;;;;;21.63;71.63;100427.56;;;;-59
2021/08/19 11:01:06;;;;;;;3.23;1.99;;;;;;;21.62;71.65;100428.22;;;;-59
2021/08/19 11:04:06;;;;;;;3.71;2.47;;;;;;;21.63;71.61;100427.58;;;;-59
2021/08/19 11:07:07;;;;;;;7.70;2.29;;;;;;;21.61;71.55;100426.43;;;;-59
2021/08/19 11:10:06;;;;;;;3.05;2.01;;;;;;;21.62;71.50;100429.05;;;;-58
2021/08/19 11:13:06;;;;;;;2.69;1.99;;;;;;;21.62;71.53;100423.16;;;;-59
2021/08/19 11:16:06;;;;;;;2.55;2.12;;;;;;;21.61;71.45;100423.26;;;;-55
2021/08/19 11:19:06;;;;;;;2.94;2.10;;;;;;;21.62;71.45;100426.27;;;;-55
2021/08/19 11:22:07;;;;;;;4.53;2.18;;;;;;;21.62;71.42;100424.79;;;;-55
2021/08/19 11:25:06;;;;;;;3.00;2.06;;;;;;;21.60;71.42;100425.31;;;;-55
2021/08/19 11:28:06;;;;;;;2.79;2.29;;;;;;;21.60;71.42;100423.68;;;;-55
2021/08/19 11:31:06;;;;;;;3.09;1.94;;;;;;;21.61;71.40;100420.73;;;;-53
2021/08/19 11:34:06;;;;;;;3.01;2.10;;;;;;;21.60;71.40;100422.35;;;;-59
2021/08/19 11:37:06;;;;;;;3.04;1.95;;;;;;;21.60;71.36;100418.03;;;;-59
2021/08/19 11:40:06;;;;;;;2.50;1.90;;;;;;;21.60;71.29;100418.68;;;;-59
2021/08/19 11:43:06;;;;;;;2.60;2.03;;;;;;;21.60;71.32;100415.17;;;;-55
2021/08/19 11:46:06;;;;;;;2.91;2.25;;;;;;;21.59;71.34;100415.02;;;;-55
2021/08/19 11:49:06;;;;;;;2.93;2.23;;;;;;;21.59;71.30;100414.38;;;;-55
2021/08/19 11:52:06;;;;;;;2.70;1.99;;;;;;;21.59;71.28;100411.69;;;;-55
2021/08/19 11:55:06;;;;;;;2.75;2.18;;;;;;;21.60;71.25;100412.97;;;;-55
2021/08/19 11:58:06;;;;;;;2.42;1.98;;;;;;;21.59;71.25;100413.23;;;;-58
2021/08/19 12:01:06;;;;;;;2.30;1.98;;;;;;;21.60;71.25;100410.30;;;;-51
2021/08/19 12:04:06;;;;;;;5.47;1.91;;;;;;;21.61;71.26;100408.00;;;;-52
2021/08/19 12:07:07;;;;;;;2.94;2.03;;;;;;;21.63;71.38;100411.18;;;;-55
2021/08/19 12:10:06;;;;;;;4.53;1.90;;;;;;;21.64;71.44;100410.02;;;;-51
2021/08/19 12:13:06;;;;;;;3.77;1.87;;;;;;;21.65;71.45;100410.36;;;;-54
2021/08/19 12:16:06;;;;;;;2.53;2.03;;;;;;;21.67;71.46;100404.56;;;;-49
2021/08/19 12:19:06;;;;;;;3.92;2.17;;;;;;;21.68;71.51;100402.52;;;;-54
2021/08/19 12:22:06;;;;;;;2.41;1.89;;;;;;;21.68;71.57;100395.66;;;;-56
2021/08/19 12:25:06;;;;;;;4.32;2.00;;;;;;;21.70;71.55;100399.89;;;;-47
2021/08/19 12:28:06;;;;;;;3.56;2.21;;;;;;;21.70;71.60;100399.96;;;;-56
2021/08/19 12:31:08;;;;;;;8.99;1.98;;;;;;;21.71;71.47;100398.52;;;;-53
2021/08/19 12:34:06;;;;;;;3.49;2.27;;;;;;;21.72;71.53;100396.54;;;;-59
2021/08/19 12:37:06;;;;;;;4.07;2.08;;;;;;;21.73;71.56;100395.66;;;;-53
2021/08/19 12:40:06;;;;;;;3.27;2.09;;;;;;;21.74;71.58;100392.95;;;;-59
2021/08/19 12:43:06;;;;;;;3.06;1.97;;;;;;;21.74;71.63;100389.27;;;;-58
2021/08/19 12:46:06;;;;;;;3.02;2.00;;;;;;;21.76;71.56;100387.64;;;;-52
2021/08/19 12:49:06;;;;;;;4.27;2.03;;;;;;;21.76;71.59;100386.73;;;;-58
2021/08/19 12:52:06;;;;;;;5.18;2.09;;;;;;;21.77;71.55;100384.30;;;;-55
2021/08/19 12:55:06;;;;;;;2.57;1.90;;;;;;;21.77;71.62;100379.56;;;;-51
2021/08/19 12:58:06;;;;;;;3.29;1.90;;;;;;;21.78;71.55;100378.66;;;;-52
2021/08/19 13:01:06;;;;;;;2.17;1.91;;;;;;;21.78;71.58;100377.98;;;;-54
2021/08/19 13:04:06;;;;;;;2.57;1.87;;;;;;;21.79;71.60;100379.21;;;;-55
2021/08/19 13:07:06;;;;;;;4.81;2.10;;;;;;;21.80;71.60;100378.23;;;;-57
2021/08/19 13:10:06;;;;;;;2.37;1.99;;;;;;;21.81;71.60;100379.22;;;;-59
2021/08/19 13:13:06;;;;;;;5.35;2.09;;;;;;;21.82;71.55;100380.28;;;;-51
2021/08/19 13:16:06;;;;;;;3.36;1.92;;;;;;;21.82;71.53;100380.02;;;;-52
2021/08/19 13:19:09;;;;;;;2.01;1.76;;;;;;;21.83;71.55;100380.75;;;;-52
2021/08/19 13:22:06;;;;;;;4.12;1.88;;;;;;;21.83;71.60;100378.81;;;;-59
2021/08/19 13:25:06;;;;;;;2.75;1.81;;;;;;;21.84;71.56;100382.70;;;;-48
2021/08/19 13:28:06;;;;;;;2.93;1.92;;;;;;;21.85;71.57;100380.84;;;;-52
2021/08/19 13:31:06;;;;;;;2.61;2.06;;;;;;;21.85;71.55;100383.61;;;;-59
2021/08/19 13:34:06;;;;;;;5.87;1.93;;;;;;;21.85;71.50;100379.02;;;;-53
2021/08/19 13:37:06;;;;;;;1.89;1.73;;;;;;;21.86;71.54;100383.11;;;;-51
2021/08/19 13:40:06;;;;;;;4.55;1.97;;;;;;;21.86;71.57;100378.20;;;;-56
2021/08/19 13:43:06;;;;;;;2.89;1.89;;;;;;;21.87;71.53;100385.88;;;;-57
2021/08/19 13:46:06;;;;;;;3.31;1.95;;;;;;;21.88;71.52;100384.08;;;;-61
2021/08/19 13:49:06;;;;;;;3.88;2.05;;;;;;;21.89;71.50;100379.91;;;;-57
2021/08/19 13:52:06;;;;;;;2.31;1.87;;;;;;;21.89;71.55;100379.73;;;;-58
2021/08/19 13:55:06;;;;;;;3.34;1.89;;;;;;;21.89;71.51;100377.72;;;;-52
2021/08/19 13:58:06;;;;;;;3.73;2.06;;;;;;;21.90;71.49;100375.58;;;;-53
2021/08/19 14:01:06;;;;;;;4.38;1.81;;;;;;;21.90;71.49;100376.32;;;;-56
2021/08/19 14:04:06;;;;;;;2.59;1.79;;;;;;;21.90;71.28;100373.13;;;;-55
2021/08/19 14:07:06;;;;;;;2.76;1.89;;;;;;;21.89;71.49;100367.92;;;;-56
2021/08/19 14:10:06;;;;;;;4.77;1.89;;;;;;;21.89;71.49;100367.50;;;;-64
2021/08/19 14:13:06;;;;;;;4.37;1.97;;;;;;;21.89;71.49;100366.77;;;;-63
2021/08/19 14:16:06;;;;;;;2.66;1.71;;;;;;;21.89;71.53;100366.19;;;;-63
2021/08/19 14:19:06;;;;;;;5.52;2.17;;;;;;;21.89;71.57;100365.48;;;;-59
2021/08/19 14:22:06;;;;;;;1.94;1.76;;;;;;;21.89;71.58;100361.94;;;;-60
2021/08/19 14:25:06;;;;;;;4.25;1.90;;;;;;;21.90;71.57;100363.51;;;;-59
2021/08/19 14:28:06;;;;;;;5.17;2.01;;;;;;;21.90;71.57;100362.03;;;;-61
2021/08/19 14:31:06;;;;;;;2.92;1.73;;;;;;;21.90;71.63;100363.34;;;;-53
2021/08/19 14:34:06;;;;;;;3.60;1.75;;;;;;;21.91;71.58;100358.50;;;;-59
2021/08/19 14:37:06;;;;;;;3.62;1.83;;;;;;;21.92;71.55;100356.72;;;;-57
2021/08/19 14:40:06;;;;;;;2.61;1.80;;;;;;;21.92;71.59;100356.89;;;;-52
2021/08/19 14:43:06;;;;;;;2.61;1.91;;;;;;;21.93;71.55;100355.00;;;;-54
2021/08/19 14:46:06;;;;;;;3.97;1.76;;;;;;;21.95;71.52;100360.13;;;;-51
2021/08/19 14:49:06;;;;;;;2.75;1.84;;;;;;;21.94;71.60;100352.89;;;;-53
2021/08/19 14:52:06;;;;;;;2.01;1.81;;;;;;;21.94;71.59;100355.56;;;;-52
2021/08/19 14:55:06;;;;;;;2.08;1.63;;;;;;;21.94;71.63;100351.90;;;;-52
2021/08/19 14:58:06;;;;;;;3.46;1.80;;;;;;;21.95;71.57;100351.72;;;;-52
2021/08/19 15:01:06;;;;;;;3.32;1.83;;;;;;;21.95;71.59;100352.13;;;;-52
2021/08/19 15:04:06;;;;;;;2.19;1.76;;;;;;;21.96;71.56;100348.95;;;;-51
2021/08/19 15:07:06;;;;;;;2.63;1.74;;;;;;;21.96;71.52;100346.42;;;;-53
2021/08/19 15:10:06;;;;;;;2.93;1.84;;;;;;;21.96;71.54;100342.84;;;;-51
2021/08/19 15:13:06;;;;;;;2.91;1.97;;;;;;;21.96;71.76;100338.59;;;;-49
2021/08/19 15:16:06;;;;;;;2.79;1.73;;;;;;;21.97;71.29;100342.08;;;;-52
2021/08/19 15:19:06;;;;;;;4.90;1.87;;;;;;;21.98;71.60;100341.19;;;;-49
2021/08/19 15:22:10;;;;;;;11.62;2.17;;;;;;;21.99;71.67;100341.91;;;;-58
2021/08/19 15:25:06;;;;;;;8.31;2.37;;;;;;;22.00;71.87;100338.81;;;;-55
2021/08/19 15:28:06;;;;;;;8.51;2.30;;;;;;;22.02;71.83;100340.17;;;;-58
2021/08/19 15:31:06;;;;;;;8.69;2.22;;;;;;;22.02;71.95;100337.48;;;;-60
2021/08/19 15:34:06;;;;;;;6.37;2.01;;;;;;;22.02;71.86;100337.91;;;;-61
2021/08/19 15:37:06;;;;;;;11.47;2.27;;;;;;;22.03;71.79;100332.90;;;;-61
2021/08/19 15:40:06;;;;;;;7.50;2.11;;;;;;;22.03;71.77;100336.41;;;;-62
2021/08/19 15:43:06;;;;;;;7.60;2.04;;;;;;;22.04;71.78;100337.98;;;;-59
2021/08/19 15:46:06;;;;;;;6.35;2.28;;;;;;;22.03;71.76;100335.67;;;;-60
2021/08/19 15:49:06;;;;;;;5.38;2.05;;;;;;;22.04;71.71;100337.33;;;;-60
2021/08/19 15:52:06;;;;;;;6.02;2.03;;;;;;;22.04;71.70;100330.47;;;;-54
2021/08/19 15:55:06;;;;;;;5.92;1.87;;;;;;;22.04;71.67;100329.64;;;;-57
2021/08/19 15:58:06;;;;;;;7.15;1.91;;;;;;;22.05;71.67;100330.38;;;;-60
2021/08/19 16:01:06;;;;;;;4.63;2.33;;;;;;;22.05;71.67;100331.42;;;;-59
2021/08/19 16:04:06;;;;;;;7.47;2.02;;;;;;;22.04;71.40;100326.30;;;;-59
2021/08/19 16:07:06;;;;;;;4.14;2.13;;;;;;;22.04;71.57;100327.59;;;;-60
2021/08/19 16:10:06;;;;;;;3.30;2.06;;;;;;;22.04;71.60;100328.52;;;;-60
2021/08/19 16:13:06;;;;;;;5.13;1.98;;;;;;;22.04;71.55;100333.00;;;;-60
2021/08/19 16:16:06;;;;;;;6.38;1.99;;;;;;;22.04;71.54;100333.16;;;;-57
2021/08/19 16:19:06;;;;;;;9.27;2.11;;;;;;;22.05;71.17;100329.88;;;;-58
2021/08/19 16:22:06;;;;;;;5.13;2.04;;;;;;;22.04;71.57;100332.26;;;;-61
2021/08/19 16:25:06;;;;;;;4.44;2.05;;;;;;;22.05;71.56;100338.20;;;;-58
2021/08/19 16:28:06;;;;;;;5.67;2.13;;;;;;;22.07;71.39;100337.30;;;;-57
2021/08/19 16:31:06;;;;;;;3.60;1.96;;;;;;;22.05;71.52;100335.50;;;;-57
2021/08/19 16:34:06;;;;;;;4.36;1.97;;;;;;;22.05;71.48;100333.80;;;;-59
2021/08/19 16:37:06;;;;;;;4.60;1.97;;;;;;;22.05;71.45;100331.68;;;;-53
2021/08/19 16:40:06;;;;;;;4.32;1.95;;;;;;;22.05;71.47;100328.31;;;;-52
2021/08/19 16:43:06;;;;;;;3.98;2.00;;;;;;;22.06;71.49;100327.69;;;;-53